sensor_id;sensor_type;location;lat;lon;timestamp;P1;durP1;ratioP1;P2;durP2;ratioP2
16624;SDS011;8426;48.496;9.098;2023-04-29T00:00:40;1.40;;;0.95;;
16624;SDS011;8426;48.496;9.098;2023-04-29T00:05:45;1.55;;;1.00;;
16624;SDS011;8426;48.496;9.098;2023-04-29T00:10:50;1.73;;;1.27;;
16624;SDS011;8426;48.496;9.098;2023-04-29T00:15:53;1.30;;;1.17;;
16624;SDS011;8426;48.496;9.098;2023-04-29T00:20:58;1.85;;;1.00;;
16624;SDS011;8426;48.496;9.098;2023-04-29T00:26:04;1.40;;;1.10;;
16624;SDS011;8426;48.496;9.098;2023-04-29T00:31:07;1.77;;;1.02;;
16624;SDS011;8426;48.496;9.098;2023-04-29T00:36:12;2.53;;;1.30;;
16624;SDS011;8426;48.496;9.098;2023-04-29T00:41:17;1.75;;;1.20;;
16624;SDS011;8426;48.496;9.098;2023-04-29T00:46:21;2.38;;;1.35;;
16624;SDS011;8426;48.496;9.098;2023-04-29T00:51:24;5.22;;;1.80;;
16624;SDS011;8426;48.496;9.098;2023-04-29T00:56:30;2.45;;;1.70;;
16624;SDS011;8426;48.496;9.098;2023-04-29T01:01:35;2.22;;;1.40;;
16624;SDS011;8426;48.496;9.098;2023-04-29T01:06:45;3.25;;;1.52;;
16624;SDS011;8426;48.496;9.098;2023-04-29T01:12:01;2.40;;;1.55;;
16624;SDS011;8426;48.496;9.098;2023-04-29T01:17:10;1.35;;;1.00;;
16624;SDS011;8426;48.496;9.098;2023-04-29T01:22:20;1.45;;;1.20;;
16624;SDS011;8426;48.496;9.098;2023-04-29T01:27:27;1.48;;;1.27;;
16624;SDS011;8426;48.496;9.098;2023-04-29T01:32:36;2.22;;;1.25;;
16624;SDS011;8426;48.496;9.098;2023-04-29T01:37:51;2.35;;;1.40;;
16624;SDS011;8426;48.496;9.098;2023-04-29T01:43:01;4.15;;;1.50;;
16624;SDS011;8426;48.496;9.098;2023-04-29T01:48:05;2.03;;;1.40;;
16624;SDS011;8426;48.496;9.098;2023-04-29T01:53:10;1.75;;;1.33;;
16624;SDS011;8426;48.496;9.098;2023-04-29T01:58:14;2.05;;;1.48;;
16624;SDS011;8426;48.496;9.098;2023-04-29T02:03:18;2.15;;;1.27;;
16624;SDS011;8426;48.496;9.098;2023-04-29T02:08:21;1.88;;;1.45;;
16624;SDS011;8426;48.496;9.098;2023-04-29T02:13:25;2.60;;;1.27;;
16624;SDS011;8426;48.496;9.098;2023-04-29T02:18:29;1.58;;;1.10;;
16624;SDS011;8426;48.496;9.098;2023-04-29T02:23:32;4.65;;;1.25;;
16624;SDS011;8426;48.496;9.098;2023-04-29T02:28:37;1.42;;;1.20;;
16624;SDS011;8426;48.496;9.098;2023-04-29T02:33:41;2.53;;;1.40;;
16624;SDS011;8426;48.496;9.098;2023-04-29T02:38:44;7.40;;;2.33;;
16624;SDS011;8426;48.496;9.098;2023-04-29T02:43:49;2.05;;;1.70;;
16624;SDS011;8426;48.496;9.098;2023-04-29T02:48:52;4.38;;;2.00;;
16624;SDS011;8426;48.496;9.098;2023-04-29T02:53:55;6.00;;;1.67;;
16624;SDS011;8426;48.496;9.098;2023-04-29T02:59:00;2.78;;;1.48;;
16624;SDS011;8426;48.496;9.098;2023-04-29T03:04:04;5.90;;;2.25;;
16624;SDS011;8426;48.496;9.098;2023-04-29T03:09:08;2.30;;;1.50;;
16624;SDS011;8426;48.496;9.098;2023-04-29T03:14:14;2.70;;;1.58;;
16624;SDS011;8426;48.496;9.098;2023-04-29T03:19:17;22.20;;;2.50;;
16624;SDS011;8426;48.496;9.098;2023-04-29T03:24:21;22.77;;;1.70;;
16624;SDS011;8426;48.496;9.098;2023-04-29T03:29:26;5.43;;;1.85;;
16624;SDS011;8426;48.496;9.098;2023-04-29T03:34:29;1.42;;;1.23;;
16624;SDS011;8426;48.496;9.098;2023-04-29T03:39:33;2.13;;;1.27;;
16624;SDS011;8426;48.496;9.098;2023-04-29T03:44:38;1.55;;;1.30;;
16624;SDS011;8426;48.496;9.098;2023-04-29T03:49:44;1.35;;;1.17;;
16624;SDS011;8426;48.496;9.098;2023-04-29T03:54:53;2.42;;;1.15;;
16624;SDS011;8426;48.496;9.098;2023-04-29T03:59:58;2.40;;;1.52;;
16624;SDS011;8426;48.496;9.098;2023-04-29T04:05:02;2.05;;;1.55;;
16624;SDS011;8426;48.496;9.098;2023-04-29T04:10:06;2.30;;;1.85;;
16624;SDS011;8426;48.496;9.098;2023-04-29T04:15:12;2.97;;;2.03;;
16624;SDS011;8426;48.496;9.098;2023-04-29T04:20:15;2.13;;;1.65;;
16624;SDS011;8426;48.496;9.098;2023-04-29T04:25:19;3.10;;;1.83;;
16624;SDS011;8426;48.496;9.098;2023-04-29T04:30:24;3.05;;;1.90;;
16624;SDS011;8426;48.496;9.098;2023-04-29T04:35:27;2.50;;;1.60;;
16624;SDS011;8426;48.496;9.098;2023-04-29T04:40:30;3.47;;;2.30;;
16624;SDS011;8426;48.496;9.098;2023-04-29T04:45:35;2.92;;;2.00;;
16624;SDS011;8426;48.496;9.098;2023-04-29T04:50:39;1.70;;;1.35;;
16624;SDS011;8426;48.496;9.098;2023-04-29T04:55:42;5.68;;;1.70;;
16624;SDS011;8426;48.496;9.098;2023-04-29T05:00:47;3.88;;;1.38;;
16624;SDS011;8426;48.496;9.098;2023-04-29T05:05:52;2.88;;;2.10;;
16624;SDS011;8426;48.496;9.098;2023-04-29T05:10:56;3.65;;;2.58;;
16624;SDS011;8426;48.496;9.098;2023-04-29T05:16:02;5.13;;;3.13;;
16624;SDS011;8426;48.496;9.098;2023-04-29T05:21:07;4.05;;;2.97;;
16624;SDS011;8426;48.496;9.098;2023-04-29T05:26:11;4.30;;;3.03;;
16624;SDS011;8426;48.496;9.098;2023-04-29T05:31:16;5.43;;;3.80;;
16624;SDS011;8426;48.496;9.098;2023-04-29T05:36:20;8.23;;;4.45;;
16624;SDS011;8426;48.496;9.098;2023-04-29T05:41:23;4.22;;;3.42;;
16624;SDS011;8426;48.496;9.098;2023-04-29T05:46:28;6.95;;;3.97;;
16624;SDS011;8426;48.496;9.098;2023-04-29T05:51:32;9.63;;;4.05;;
16624;SDS011;8426;48.496;9.098;2023-04-29T05:56:35;6.43;;;4.30;;
16624;SDS011;8426;48.496;9.098;2023-04-29T06:01:41;9.45;;;3.85;;
16624;SDS011;8426;48.496;9.098;2023-04-29T06:06:46;5.10;;;3.40;;
16624;SDS011;8426;48.496;9.098;2023-04-29T06:11:51;5.68;;;3.28;;
16624;SDS011;8426;48.496;9.098;2023-04-29T06:16:57;1.00;;;0.90;;
16624;SDS011;8426;48.496;9.098;2023-04-29T06:22:00;1.00;;;0.70;;
16624;SDS011;8426;48.496;9.098;2023-04-29T06:27:05;2.35;;;1.13;;
16624;SDS011;8426;48.496;9.098;2023-04-29T06:32:09;1.00;;;0.80;;
16624;SDS011;8426;48.496;9.098;2023-04-29T06:37:14;3.83;;;0.70;;
16624;SDS011;8426;48.496;9.098;2023-04-29T06:42:17;0.60;;;0.60;;
16624;SDS011;8426;48.496;9.098;2023-04-29T06:47:22;0.85;;;0.75;;
16624;SDS011;8426;48.496;9.098;2023-04-29T06:52:26;0.68;;;0.60;;
16624;SDS011;8426;48.496;9.098;2023-04-29T06:57:30;1.40;;;0.82;;
16624;SDS011;8426;48.496;9.098;2023-04-29T07:02:35;2.25;;;0.63;;
16624;SDS011;8426;48.496;9.098;2023-04-29T07:07:40;0.95;;;0.85;;
16624;SDS011;8426;48.496;9.098;2023-04-29T07:12:43;0.52;;;0.52;;
16624;SDS011;8426;48.496;9.098;2023-04-29T07:17:48;1.90;;;0.60;;
16624;SDS011;8426;48.496;9.098;2023-04-29T07:22:53;1.23;;;0.65;;
16624;SDS011;8426;48.496;9.098;2023-04-29T07:27:56;1.48;;;0.63;;
16624;SDS011;8426;48.496;9.098;2023-04-29T07:33:04;1.17;;;0.55;;
16624;SDS011;8426;48.496;9.098;2023-04-29T07:38:08;1.30;;;0.80;;
16624;SDS011;8426;48.496;9.098;2023-04-29T07:43:12;1.65;;;0.60;;
16624;SDS011;8426;48.496;9.098;2023-04-29T07:48:17;1.08;;;0.50;;
16624;SDS011;8426;48.496;9.098;2023-04-29T07:53:21;0.55;;;0.40;;
16624;SDS011;8426;48.496;9.098;2023-04-29T07:58:26;0.73;;;0.47;;
16624;SDS011;8426;48.496;9.098;2023-04-29T08:03:31;4.68;;;0.40;;
16624;SDS011;8426;48.496;9.098;2023-04-29T08:08:37;0.77;;;0.47;;
16624;SDS011;8426;48.496;9.098;2023-04-29T08:13:41;0.70;;;0.35;;
16624;SDS011;8426;48.496;9.098;2023-04-29T08:18:48;0.65;;;0.50;;
16624;SDS011;8426;48.496;9.098;2023-04-29T08:23:51;2.63;;;0.30;;
16624;SDS011;8426;48.496;9.098;2023-04-29T08:28:56;1.23;;;0.68;;
16624;SDS011;8426;48.496;9.098;2023-04-29T08:34:01;1.20;;;0.30;;
16624;SDS011;8426;48.496;9.098;2023-04-29T08:39:06;1.77;;;0.70;;
16624;SDS011;8426;48.496;9.098;2023-04-29T08:44:10;2.35;;;0.60;;
16624;SDS011;8426;48.496;9.098;2023-04-29T08:49:15;0.40;;;0.40;;
16624;SDS011;8426;48.496;9.098;2023-04-29T08:54:24;5.97;;;0.52;;
16624;SDS011;8426;48.496;9.098;2023-04-29T08:59:29;16.80;;;2.10;;
16624;SDS011;8426;48.496;9.098;2023-04-29T09:04:36;139.27;;;10.32;;
16624;SDS011;8426;48.496;9.098;2023-04-29T09:09:49;14.38;;;2.05;;
16624;SDS011;8426;48.496;9.098;2023-04-29T09:14:55;3.88;;;0.88;;
16624;SDS011;8426;48.496;9.098;2023-04-29T09:20:01;5.55;;;0.77;;
16624;SDS011;8426;48.496;9.098;2023-04-29T09:25:28;30.75;;;2.42;;
16624;SDS011;8426;48.496;9.098;2023-04-29T09:30:32;8.70;;;1.35;;
16624;SDS011;8426;48.496;9.098;2023-04-29T09:35:49;1.98;;;0.60;;
16624;SDS011;8426;48.496;9.098;2023-04-29T09:40:52;5.15;;;1.35;;
16624;SDS011;8426;48.496;9.098;2023-04-29T09:46:00;5.93;;;0.80;;
16624;SDS011;8426;48.496;9.098;2023-04-29T09:51:05;3.20;;;0.50;;
16624;SDS011;8426;48.496;9.098;2023-04-29T09:56:08;1.45;;;0.50;;
16624;SDS011;8426;48.496;9.098;2023-04-29T10:01:12;2.30;;;0.40;;
16624;SDS011;8426;48.496;9.098;2023-04-29T10:06:21;0.95;;;0.57;;
16624;SDS011;8426;48.496;9.098;2023-04-29T10:11:26;0.40;;;0.40;;
16624;SDS011;8426;48.496;9.098;2023-04-29T10:16:30;2.65;;;0.40;;
16624;SDS011;8426;48.496;9.098;2023-04-29T10:21:45;1.70;;;0.45;;
16624;SDS011;8426;48.496;9.098;2023-04-29T10:26:51;0.30;;;0.30;;
16624;SDS011;8426;48.496;9.098;2023-04-29T10:31:56;7.32;;;0.60;;
16624;SDS011;8426;48.496;9.098;2023-04-29T10:37:03;2.15;;;0.40;;
16624;SDS011;8426;48.496;9.098;2023-04-29T10:42:14;1.13;;;0.40;;
16624;SDS011;8426;48.496;9.098;2023-04-29T10:47:24;0.73;;;0.40;;
16624;SDS011;8426;48.496;9.098;2023-04-29T10:52:29;1.08;;;0.60;;
16624;SDS011;8426;48.496;9.098;2023-04-29T10:57:33;1.75;;;0.50;;
16624;SDS011;8426;48.496;9.098;2023-04-29T11:02:39;0.50;;;0.50;;
16624;SDS011;8426;48.496;9.098;2023-04-29T11:07:49;0.80;;;0.60;;
16624;SDS011;8426;48.496;9.098;2023-04-29T11:13:22;4.10;;;0.65;;
16624;SDS011;8426;48.496;9.098;2023-04-29T11:18:27;2.80;;;0.60;;
16624;SDS011;8426;48.496;9.098;2023-04-29T11:23:34;0.47;;;0.47;;
16624;SDS011;8426;48.496;9.098;2023-04-29T11:28:39;1.70;;;0.55;;
16624;SDS011;8426;48.496;9.098;2023-04-29T11:33:47;1.00;;;0.47;;
16624;SDS011;8426;48.496;9.098;2023-04-29T11:38:52;43.40;;;6.90;;
16624;SDS011;8426;48.496;9.098;2023-04-29T11:43:56;0.98;;;0.43;;
16624;SDS011;8426;48.496;9.098;2023-04-29T11:49:03;0.43;;;0.40;;
16624;SDS011;8426;48.496;9.098;2023-04-29T11:54:08;5.82;;;1.25;;
16624;SDS011;8426;48.496;9.098;2023-04-29T11:59:12;1.50;;;0.60;;
16624;SDS011;8426;48.496;9.098;2023-04-29T12:04:16;4.20;;;0.70;;
16624;SDS011;8426;48.496;9.098;2023-04-29T12:09:23;1.77;;;0.50;;
16624;SDS011;8426;48.496;9.098;2023-04-29T12:14:30;1.52;;;0.60;;
16624;SDS011;8426;48.496;9.098;2023-04-29T12:19:33;2.47;;;0.90;;
16624;SDS011;8426;48.496;9.098;2023-04-29T12:24:41;0.98;;;0.70;;
16624;SDS011;8426;48.496;9.098;2023-04-29T12:29:50;2.97;;;0.65;;
16624;SDS011;8426;48.496;9.098;2023-04-29T12:34:54;4.28;;;0.80;;
16624;SDS011;8426;48.496;9.098;2023-04-29T12:39:59;3.85;;;0.70;;
16624;SDS011;8426;48.496;9.098;2023-04-29T12:45:04;1.45;;;0.90;;
16624;SDS011;8426;48.496;9.098;2023-04-29T12:50:10;1.17;;;0.90;;
16624;SDS011;8426;48.496;9.098;2023-04-29T12:55:19;1.13;;;0.68;;
16624;SDS011;8426;48.496;9.098;2023-04-29T13:00:25;4.53;;;0.80;;
16624;SDS011;8426;48.496;9.098;2023-04-29T13:05:29;1.63;;;0.90;;
16624;SDS011;8426;48.496;9.098;2023-04-29T13:10:34;5.28;;;1.33;;
16624;SDS011;8426;48.496;9.098;2023-04-29T13:15:38;2.22;;;1.00;;
16624;SDS011;8426;48.496;9.098;2023-04-29T13:21:06;1.38;;;0.80;;
16624;SDS011;8426;48.496;9.098;2023-04-29T13:26:11;1.55;;;0.70;;
16624;SDS011;8426;48.496;9.098;2023-04-29T13:36:45;4.30;;;0.80;;
16624;SDS011;8426;48.496;9.098;2023-04-29T13:41:51;5.18;;;1.00;;
16624;SDS011;8426;48.496;9.098;2023-04-29T13:46:59;1.33;;;0.70;;
16624;SDS011;8426;48.496;9.098;2023-04-29T13:52:06;1.08;;;0.70;;
16624;SDS011;8426;48.496;9.098;2023-04-29T13:57:14;3.03;;;0.82;;
16624;SDS011;8426;48.496;9.098;2023-04-29T14:02:21;1.33;;;0.80;;
16624;SDS011;8426;48.496;9.098;2023-04-29T14:07:26;1.80;;;0.90;;
16624;SDS011;8426;48.496;9.098;2023-04-29T14:12:31;2.45;;;1.35;;
16624;SDS011;8426;48.496;9.098;2023-04-29T14:17:35;4.13;;;1.30;;
16624;SDS011;8426;48.496;9.098;2023-04-29T14:22:38;6.30;;;1.40;;
16624;SDS011;8426;48.496;9.098;2023-04-29T14:27:43;5.68;;;1.45;;
16624;SDS011;8426;48.496;9.098;2023-04-29T14:32:48;2.75;;;1.40;;
16624;SDS011;8426;48.496;9.098;2023-04-29T14:37:52;3.13;;;1.23;;
16624;SDS011;8426;48.496;9.098;2023-04-29T14:42:56;6.75;;;1.60;;
16624;SDS011;8426;48.496;9.098;2023-04-29T14:48:00;1.88;;;1.30;;
16624;SDS011;8426;48.496;9.098;2023-04-29T14:53:05;4.90;;;1.85;;
16624;SDS011;8426;48.496;9.098;2023-04-29T14:58:13;4.40;;;1.70;;
16624;SDS011;8426;48.496;9.098;2023-04-29T15:03:18;2.97;;;1.65;;
16624;SDS011;8426;48.496;9.098;2023-04-29T15:08:29;3.75;;;2.17;;
16624;SDS011;8426;48.496;9.098;2023-04-29T15:13:45;3.63;;;1.90;;
16624;SDS011;8426;48.496;9.098;2023-04-29T15:18:48;4.88;;;2.53;;
16624;SDS011;8426;48.496;9.098;2023-04-29T15:23:52;3.10;;;2.00;;
16624;SDS011;8426;48.496;9.098;2023-04-29T15:29:00;5.43;;;2.33;;
16624;SDS011;8426;48.496;9.098;2023-04-29T15:34:05;8.93;;;2.53;;
16624;SDS011;8426;48.496;9.098;2023-04-29T15:39:08;8.90;;;2.90;;
16624;SDS011;8426;48.496;9.098;2023-04-29T15:44:14;4.45;;;2.75;;
16624;SDS011;8426;48.496;9.098;2023-04-29T15:49:18;4.50;;;2.55;;
16624;SDS011;8426;48.496;9.098;2023-04-29T15:54:24;3.75;;;2.10;;
16624;SDS011;8426;48.496;9.098;2023-04-29T15:59:29;5.68;;;2.85;;
16624;SDS011;8426;48.496;9.098;2023-04-29T16:04:33;4.30;;;2.50;;
16624;SDS011;8426;48.496;9.098;2023-04-29T16:09:39;6.07;;;2.40;;
16624;SDS011;8426;48.496;9.098;2023-04-29T16:14:45;6.70;;;2.80;;
16624;SDS011;8426;48.496;9.098;2023-04-29T16:19:49;9.65;;;3.45;;
16624;SDS011;8426;48.496;9.098;2023-04-29T16:24:55;9.07;;;3.60;;
16624;SDS011;8426;48.496;9.098;2023-04-29T16:30:00;7.38;;;2.83;;
16624;SDS011;8426;48.496;9.098;2023-04-29T16:35:11;4.88;;;3.17;;
16624;SDS011;8426;48.496;9.098;2023-04-29T16:40:16;7.60;;;3.17;;
16624;SDS011;8426;48.496;9.098;2023-04-29T16:45:22;5.38;;;3.72;;
16624;SDS011;8426;48.496;9.098;2023-04-29T16:50:26;9.73;;;4.10;;
16624;SDS011;8426;48.496;9.098;2023-04-29T16:55:30;7.78;;;4.72;;
16624;SDS011;8426;48.496;9.098;2023-04-29T17:00:35;9.27;;;4.80;;
16624;SDS011;8426;48.496;9.098;2023-04-29T17:05:39;7.55;;;4.53;;
16624;SDS011;8426;48.496;9.098;2023-04-29T17:10:43;7.88;;;4.32;;
16624;SDS011;8426;48.496;9.098;2023-04-29T17:15:48;9.15;;;4.72;;
16624;SDS011;8426;48.496;9.098;2023-04-29T17:20:52;7.20;;;4.35;;
16624;SDS011;8426;48.496;9.098;2023-04-29T17:25:57;8.57;;;4.75;;
16624;SDS011;8426;48.496;9.098;2023-04-29T17:31:02;6.95;;;3.92;;
16624;SDS011;8426;48.496;9.098;2023-04-29T17:36:06;6.43;;;3.70;;
16624;SDS011;8426;48.496;9.098;2023-04-29T17:41:13;6.30;;;4.00;;
16624;SDS011;8426;48.496;9.098;2023-04-29T17:46:18;7.75;;;3.95;;
16624;SDS011;8426;48.496;9.098;2023-04-29T17:51:21;8.15;;;4.15;;
16624;SDS011;8426;48.496;9.098;2023-04-29T17:56:24;8.50;;;4.03;;
16624;SDS011;8426;48.496;9.098;2023-04-29T18:01:30;12.15;;;4.53;;
16624;SDS011;8426;48.496;9.098;2023-04-29T18:06:34;7.07;;;3.78;;
16624;SDS011;8426;48.496;9.098;2023-04-29T18:11:40;7.85;;;4.22;;
16624;SDS011;8426;48.496;9.098;2023-04-29T18:16:46;8.63;;;3.78;;
16624;SDS011;8426;48.496;9.098;2023-04-29T18:21:52;6.97;;;4.30;;
16624;SDS011;8426;48.496;9.098;2023-04-29T18:26:59;6.95;;;3.83;;
16624;SDS011;8426;48.496;9.098;2023-04-29T18:32:04;5.13;;;3.38;;
16624;SDS011;8426;48.496;9.098;2023-04-29T18:37:08;5.57;;;3.65;;
16624;SDS011;8426;48.496;9.098;2023-04-29T18:42:12;7.53;;;4.13;;
16624;SDS011;8426;48.496;9.098;2023-04-29T18:47:17;7.28;;;3.58;;
16624;SDS011;8426;48.496;9.098;2023-04-29T18:52:21;5.88;;;3.30;;
16624;SDS011;8426;48.496;9.098;2023-04-29T18:57:24;6.97;;;3.58;;
16624;SDS011;8426;48.496;9.098;2023-04-29T19:02:30;4.20;;;3.00;;
16624;SDS011;8426;48.496;9.098;2023-04-29T19:07:39;6.47;;;3.60;;
16624;SDS011;8426;48.496;9.098;2023-04-29T19:12:43;5.47;;;3.45;;
16624;SDS011;8426;48.496;9.098;2023-04-29T19:17:48;5.75;;;3.72;;
16624;SDS011;8426;48.496;9.098;2023-04-29T19:22:54;6.35;;;3.03;;
16624;SDS011;8426;48.496;9.098;2023-04-29T19:27:58;4.82;;;3.45;;
16624;SDS011;8426;48.496;9.098;2023-04-29T19:33:05;6.00;;;3.38;;
16624;SDS011;8426;48.496;9.098;2023-04-29T19:38:11;4.85;;;3.17;;
16624;SDS011;8426;48.496;9.098;2023-04-29T19:43:14;6.00;;;3.78;;
16624;SDS011;8426;48.496;9.098;2023-04-29T19:48:21;5.60;;;3.15;;
16624;SDS011;8426;48.496;9.098;2023-04-29T19:53:26;6.93;;;3.95;;
16624;SDS011;8426;48.496;9.098;2023-04-29T19:58:30;10.10;;;4.88;;
16624;SDS011;8426;48.496;9.098;2023-04-29T20:03:36;7.78;;;3.75;;
16624;SDS011;8426;48.496;9.098;2023-04-29T20:08:43;6.90;;;4.07;;
16624;SDS011;8426;48.496;9.098;2023-04-29T20:13:48;6.43;;;3.88;;
16624;SDS011;8426;48.496;9.098;2023-04-29T20:19:05;7.40;;;4.07;;
16624;SDS011;8426;48.496;9.098;2023-04-29T20:24:10;7.32;;;3.88;;
16624;SDS011;8426;48.496;9.098;2023-04-29T20:29:23;7.93;;;3.70;;
16624;SDS011;8426;48.496;9.098;2023-04-29T20:34:56;6.28;;;3.85;;
16624;SDS011;8426;48.496;9.098;2023-04-29T20:40:00;7.90;;;3.72;;
16624;SDS011;8426;48.496;9.098;2023-04-29T20:45:08;6.57;;;3.92;;
16624;SDS011;8426;48.496;9.098;2023-04-29T20:50:15;7.57;;;3.67;;
16624;SDS011;8426;48.496;9.098;2023-04-29T20:55:19;4.95;;;3.45;;
16624;SDS011;8426;48.496;9.098;2023-04-29T21:00:24;5.28;;;3.50;;
16624;SDS011;8426;48.496;9.098;2023-04-29T21:05:30;5.80;;;3.33;;
16624;SDS011;8426;48.496;9.098;2023-04-29T21:10:38;5.90;;;3.72;;
16624;SDS011;8426;48.496;9.098;2023-04-29T21:15:42;5.85;;;3.60;;
16624;SDS011;8426;48.496;9.098;2023-04-29T21:20:50;5.70;;;3.78;;
16624;SDS011;8426;48.496;9.098;2023-04-29T21:25:57;5.63;;;3.45;;
16624;SDS011;8426;48.496;9.098;2023-04-29T21:31:12;5.45;;;3.58;;
16624;SDS011;8426;48.496;9.098;2023-04-29T21:36:26;9.27;;;3.35;;
16624;SDS011;8426;48.496;9.098;2023-04-29T21:41:47;5.25;;;3.67;;
16624;SDS011;8426;48.496;9.098;2023-04-29T21:47:09;6.20;;;4.03;;
16624;SDS011;8426;48.496;9.098;2023-04-29T21:52:14;5.72;;;3.25;;
16624;SDS011;8426;48.496;9.098;2023-04-29T21:57:18;6.65;;;3.63;;
16624;SDS011;8426;48.496;9.098;2023-04-29T22:02:36;6.57;;;3.75;;
16624;SDS011;8426;48.496;9.098;2023-04-29T22:07:45;4.65;;;3.17;;
16624;SDS011;8426;48.496;9.098;2023-04-29T22:12:50;7.03;;;3.92;;
16624;SDS011;8426;48.496;9.098;2023-04-29T22:18:03;7.50;;;3.88;;
16624;SDS011;8426;48.496;9.098;2023-04-29T22:23:13;5.80;;;3.67;;
16624;SDS011;8426;48.496;9.098;2023-04-29T22:28:17;6.60;;;3.70;;
16624;SDS011;8426;48.496;9.098;2023-04-29T22:33:24;6.90;;;4.00;;
16624;SDS011;8426;48.496;9.098;2023-04-29T22:38:30;9.77;;;4.05;;
16624;SDS011;8426;48.496;9.098;2023-04-29T22:43:35;5.75;;;3.63;;
16624;SDS011;8426;48.496;9.098;2023-04-29T22:48:48;6.35;;;3.90;;
16624;SDS011;8426;48.496;9.098;2023-04-29T22:53:53;10.02;;;4.15;;
16624;SDS011;8426;48.496;9.098;2023-04-29T22:58:59;8.15;;;3.83;;
16624;SDS011;8426;48.496;9.098;2023-04-29T23:04:23;5.82;;;3.72;;
16624;SDS011;8426;48.496;9.098;2023-04-29T23:09:28;6.72;;;4.03;;
16624;SDS011;8426;48.496;9.098;2023-04-29T23:14:37;6.80;;;3.90;;
16624;SDS011;8426;48.496;9.098;2023-04-29T23:19:44;7.25;;;4.38;;
16624;SDS011;8426;48.496;9.098;2023-04-29T23:24:50;9.55;;;4.53;;
16624;SDS011;8426;48.496;9.098;2023-04-29T23:29:54;6.70;;;3.65;;
16624;SDS011;8426;48.496;9.098;2023-04-29T23:34:58;6.07;;;4.00;;
16624;SDS011;8426;48.496;9.098;2023-04-29T23:40:05;9.07;;;5.00;;
16624;SDS011;8426;48.496;9.098;2023-04-29T23:45:10;8.23;;;4.78;;
16624;SDS011;8426;48.496;9.098;2023-04-29T23:50:16;8.70;;;4.97;;
16624;SDS011;8426;48.496;9.098;2023-04-29T23:55:28;7.82;;;4.35;;
